KSUU/SUU METAR and TAF weather

Enter ICAO airport designator
Station Type Date Time Source
KSUU METAR 2019/04/20 17:58 UTC NOAA

KSUU 201758Z AUTO 23020G23KT 10SM CLR 18/12 A2988 RMK AO2 SLP125 T01750120 10175 20119 52014 $


Station Type Date Time Source
KSUU Decoded METAR 2019/04/20 17:58 UTC NOAA

Fairfield / Travis Air Force Base, CA, United States (KSUU) 38-16N 121-57W 22M
Apr 20, 2019 - 01:58 PM EDT / 2019.04.20 1758 UTC
Wind: from the SW (230 degrees) at 23 MPH (20 KT) gusting to 26 MPH (23 KT):0
Visibility: 10 mile(s):0
Sky conditions: clear
Temperature: 63.5 F (17.5 C)
Dew Point: 53.6 F (12.0 C)
Relative Humidity: 70%
Pressure (altimeter): 29.88 in. Hg (1011 hPa)
Pressure tendency: 0.04 inches (1.4 hPa) higher than three hours ago
ob: KSUU 201758Z AUTO 23020G23KT 10SM CLR 18/12 A2988 RMK AO2 SLP125 T01750120 10175 20119 52014
cycle: 18

Station Type Date Time Source
KSUU TAF 2019/04/20 16:48 UTC NOAA

TAF TAF COR KSUU 201643Z 2016/2117 24020G30KT 9999 BKN100 QNH2986INS
BECMG 2105/2106 24012KT 9999 SCT050 QNH2994INS TX21/2023Z TN10/2112Z

Example: see airport list